createdAt,value
2023-01-19T00:00:56.453Z,6.43
2023-01-19T00:03:23.373Z,6.80
2023-01-19T00:05:50.234Z,7.22
2023-01-19T00:08:19.469Z,7.20
2023-01-19T00:10:48.677Z,7.80
2023-01-19T00:13:16.293Z,7.35
2023-01-19T00:15:45.091Z,7.15
2023-01-19T00:18:12.172Z,8.02
2023-01-19T00:20:40.390Z,8.35
2023-01-19T00:23:08.364Z,7.90
2023-01-19T00:25:36.096Z,7.90
2023-01-19T00:28:03.224Z,7.80
2023-01-19T00:30:30.523Z,9.13
2023-01-19T00:32:57.432Z,6.57
2023-01-19T00:35:24.396Z,8.55
2023-01-19T00:37:51.677Z,6.47
2023-01-19T00:40:18.567Z,7.05
2023-01-19T00:42:46.110Z,7.95
2023-01-19T00:45:15.550Z,7.82
2023-01-19T00:47:42.729Z,7.90
2023-01-19T00:50:14.011Z,7.97
2023-01-19T00:52:41.873Z,7.18
2023-01-19T00:55:11.118Z,6.15
2023-01-19T00:57:40.521Z,7.70
2023-01-19T01:00:11.797Z,7.63
2023-01-19T01:02:40.255Z,6.53
2023-01-19T01:05:08.753Z,7.60
2023-01-19T01:07:47.048Z,7.38
2023-01-19T01:10:13.958Z,6.47
2023-01-19T01:12:41.474Z,6.78
2023-01-19T01:15:23.122Z,7.70
2023-01-19T01:17:53.164Z,6.50
2023-01-19T01:20:23.323Z,7.38
2023-01-19T01:22:52.608Z,6.63
2023-01-19T01:25:22.774Z,7.95
2023-01-19T01:27:50.367Z,7.00
2023-01-19T01:30:18.350Z,8.10
2023-01-19T01:32:45.379Z,7.55
2023-01-19T01:35:13.394Z,7.47
2023-01-19T01:37:42.680Z,7.72
2023-01-19T01:40:12.984Z,6.95
2023-01-19T01:42:40.693Z,9.93
2023-01-19T01:45:27.071Z,8.25
2023-01-19T01:47:56.912Z,6.57
2023-01-19T01:50:27.718Z,7.85
2023-01-19T01:53:06.783Z,7.60
2023-01-19T01:55:46.121Z,7.45
2023-01-19T01:58:14.693Z,8.38
2023-01-19T02:01:00.984Z,8.77
2023-01-19T02:03:28.842Z,6.82
2023-01-19T02:05:59.707Z,7.30
2023-01-19T02:09:17.366Z,6.97
2023-01-19T02:12:02.959Z,6.10
2023-01-19T02:14:29.840Z,7.13
2023-01-19T02:16:56.939Z,7.53
2023-01-19T02:19:34.451Z,6.50
2023-01-19T02:22:07.969Z,6.63
2023-01-19T02:24:35.804Z,7.28
2023-01-19T02:27:03.489Z,6.45
2023-01-19T02:29:30.782Z,8.40
2023-01-19T02:31:59.882Z,6.35
2023-01-19T02:34:26.914Z,8.02
2023-01-19T02:36:58.476Z,8.10
2023-01-19T02:39:35.330Z,8.55
2023-01-19T02:42:06.788Z,7.40
2023-01-19T02:44:35.681Z,7.28
2023-01-19T02:47:03.791Z,6.80
2023-01-19T02:49:31.046Z,7.72
2023-01-19T02:51:58.920Z,6.88
2023-01-19T02:54:45.342Z,4.15
2023-01-19T02:57:36.359Z,5.05
2023-01-19T03:00:15.311Z,6.53
2023-01-19T03:02:53.617Z,6.55
2023-01-19T03:05:41.607Z,5.20
2023-01-19T03:08:24.892Z,5.93
2023-01-19T03:10:54.844Z,6.95
2023-01-19T03:13:42.827Z,7.47
2023-01-19T03:16:29.864Z,6.43
2023-01-19T03:19:06.601Z,6.10
2023-01-19T03:21:36.045Z,6.65
2023-01-19T03:24:06.461Z,5.78
2023-01-19T03:26:41.104Z,6.30
2023-01-19T03:29:13.748Z,6.60
2023-01-19T03:31:44.777Z,7.80
2023-01-19T03:34:15.369Z,7.00
2023-01-19T03:36:52.758Z,7.13
2023-01-19T03:39:24.425Z,7.43
2023-01-19T03:42:13.983Z,4.85
2023-01-19T03:44:42.724Z,5.00
2023-01-19T03:47:11.839Z,7.68
2023-01-19T03:49:41.747Z,7.10
2023-01-19T03:52:08.732Z,5.35
2023-01-19T03:54:35.812Z,6.10
2023-01-19T03:57:02.899Z,6.55
2023-01-19T03:59:29.864Z,7.57
2023-01-19T04:01:56.674Z,5.38
2023-01-19T04:04:25.649Z,7.35
2023-01-19T04:06:52.610Z,6.68
2023-01-19T04:09:20.190Z,9.70
2023-01-19T04:11:47.104Z,6.70
2023-01-19T04:14:13.972Z,6.68
2023-01-19T04:16:41.005Z,8.02
2023-01-19T04:19:07.899Z,7.57
2023-01-19T04:21:35.415Z,7.78
2023-01-19T04:24:02.290Z,8.13
2023-01-19T04:26:29.212Z,8.43
2023-01-19T04:28:56.217Z,7.40
2023-01-19T04:31:23.477Z,8.10
2023-01-19T04:33:50.539Z,8.10
2023-01-19T04:36:17.496Z,7.10
2023-01-19T04:38:46.739Z,7.30
2023-01-19T04:41:13.575Z,8.07
2023-01-19T04:43:41.012Z,8.68
2023-01-19T04:46:07.965Z,7.45
2023-01-19T04:48:34.878Z,7.13
2023-01-19T04:51:01.870Z,7.15
2023-01-19T04:53:28.714Z,6.85
2023-01-19T04:55:55.605Z,7.25
2023-01-19T04:58:22.572Z,6.75
2023-01-19T05:00:51.292Z,7.55
2023-01-19T05:03:19.396Z,8.27
2023-01-19T05:05:46.772Z,8.73
2023-01-19T05:08:13.693Z,7.80
2023-01-19T05:10:40.566Z,7.85
2023-01-19T05:13:07.493Z,7.00
2023-01-19T05:15:34.325Z,7.82
2023-01-19T05:18:01.264Z,7.28
2023-01-19T05:20:28.170Z,7.72
2023-01-19T05:22:55.032Z,6.75
2023-01-19T05:25:24.829Z,7.65
2023-01-19T05:27:51.770Z,6.45
2023-01-19T05:30:19.470Z,8.40
2023-01-19T05:32:46.648Z,8.05
2023-01-19T05:35:20.227Z,8.30
2023-01-19T05:37:51.906Z,7.65
2023-01-19T05:40:18.886Z,8.20
2023-01-19T05:42:45.720Z,9.55
2023-01-19T05:45:12.586Z,7.57
2023-01-19T05:47:40.054Z,9.23
2023-01-19T05:50:09.802Z,8.93
2023-01-19T05:52:36.636Z,6.78
2023-01-19T05:55:03.553Z,8.30
2023-01-19T05:57:30.367Z,8.60
2023-01-19T05:59:57.223Z,9.15
2023-01-19T06:02:28.713Z,9.63
2023-01-19T06:04:56.536Z,7.07
2023-01-19T06:07:24.481Z,7.07
2023-01-19T06:09:52.195Z,7.90
2023-01-19T06:12:19.064Z,8.82
2023-01-19T06:14:45.906Z,9.95
2023-01-19T06:17:12.751Z,9.27
2023-01-19T06:19:39.579Z,9.43
2023-01-19T06:22:06.541Z,7.70
2023-01-19T06:24:33.377Z,6.75
2023-01-19T06:27:01.453Z,7.53
2023-01-19T06:29:31.023Z,8.75
2023-01-19T06:32:00.169Z,5.97
2023-01-19T06:34:29.457Z,7.93
2023-01-19T06:36:56.660Z,9.55
2023-01-19T06:39:23.728Z,8.75
2023-01-19T06:41:51.598Z,8.52
2023-01-19T06:44:18.427Z,8.57
2023-01-19T06:46:45.781Z,6.35
2023-01-19T06:49:12.925Z,10.27
2023-01-19T06:51:40.339Z,8.77
2023-01-19T06:54:07.809Z,11.70
2023-01-19T06:56:35.124Z,9.63
2023-01-19T06:59:02.075Z,9.45
2023-01-19T07:01:28.985Z,8.05
2023-01-19T07:03:56.091Z,9.68
2023-01-19T07:06:23.027Z,9.52
2023-01-19T07:08:49.891Z,7.53
2023-01-19T07:11:26.219Z,9.25
2023-01-19T07:13:59.740Z,8.98
2023-01-19T07:16:26.847Z,9.27
2023-01-19T07:18:53.873Z,9.60
2023-01-19T07:21:21.787Z,8.43
2023-01-19T07:23:50.594Z,11.10
2023-01-19T07:26:21.848Z,9.30
2023-01-19T07:28:49.525Z,7.82
2023-01-19T07:31:17.244Z,9.60
2023-01-19T07:33:44.712Z,8.30
2023-01-19T07:36:12.810Z,10.45
2023-01-19T07:38:40.267Z,9.35
2023-01-19T07:41:09.734Z,10.73
2023-01-19T07:43:36.950Z,12.15
2023-01-19T07:46:06.032Z,9.63
2023-01-19T07:48:33.110Z,9.90
2023-01-19T07:51:05.952Z,8.55
2023-01-19T07:53:33.109Z,9.45
2023-01-19T07:56:00.249Z,8.85
2023-01-19T07:58:28.271Z,12.15
2023-01-19T08:00:55.466Z,8.68
2023-01-19T08:03:22.847Z,8.73
2023-01-19T08:05:52.154Z,11.23
2023-01-19T08:08:19.552Z,10.38
2023-01-19T08:10:52.738Z,8.23
2023-01-19T08:13:20.069Z,10.45
2023-01-19T08:15:51.922Z,10.77
2023-01-19T08:18:19.548Z,11.38
2023-01-19T08:20:46.820Z,11.43
2023-01-19T08:23:18.121Z,9.93
2023-01-19T08:25:46.460Z,9.07
2023-01-19T08:28:16.354Z,10.82
2023-01-19T08:30:45.065Z,10.55
2023-01-19T08:33:13.618Z,9.52
2023-01-19T08:35:42.940Z,10.60
2023-01-19T08:38:10.741Z,12.43
2023-01-19T08:40:40.469Z,10.00
2023-01-19T08:43:10.079Z,11.43
2023-01-19T08:45:38.646Z,10.65
2023-01-19T08:48:06.488Z,11.70
2023-01-19T08:50:34.594Z,9.57
2023-01-19T08:53:04.001Z,8.88
2023-01-19T08:55:30.953Z,10.05
2023-01-19T08:58:00.048Z,9.25
2023-01-19T09:00:28.284Z,8.48
2023-01-19T09:02:56.686Z,8.63
2023-01-19T09:05:23.923Z,9.70
2023-01-19T09:07:51.824Z,7.10
2023-01-19T09:10:20.806Z,7.75
2023-01-19T09:12:47.644Z,9.05
2023-01-19T09:15:14.499Z,8.57
2023-01-19T09:17:44.665Z,8.35
2023-01-19T09:20:11.802Z,7.07
2023-01-19T09:22:39.778Z,10.00
2023-01-19T09:25:08.121Z,8.68
2023-01-19T09:27:35.065Z,9.45
2023-01-19T09:30:02.937Z,9.23
2023-01-19T09:32:29.997Z,9.40
2023-01-19T09:34:56.956Z,6.63
2023-01-19T09:37:24.688Z,7.70
2023-01-19T09:39:51.605Z,6.75
2023-01-19T09:42:33.432Z,6.40
2023-01-19T09:45:07.222Z,7.50
2023-01-19T09:47:36.896Z,8.80
2023-01-19T09:50:10.652Z,9.88
2023-01-19T09:52:41.710Z,7.13
2023-01-19T09:55:21.667Z,7.45
2023-01-19T09:57:48.540Z,7.18
2023-01-19T10:00:18.233Z,8.43
2023-01-19T10:03:07.712Z,11.38
2023-01-19T10:05:47.097Z,8.77
2023-01-19T10:08:22.128Z,7.15
2023-01-19T10:10:54.744Z,7.50
2023-01-19T10:13:36.697Z,9.32
2023-01-19T10:16:43.233Z,8.48
2023-01-19T10:19:27.112Z,7.38
2023-01-19T10:21:59.895Z,7.72
2023-01-19T10:24:38.673Z,8.90
2023-01-19T10:27:18.049Z,8.23
2023-01-19T10:29:46.193Z,6.57
2023-01-19T10:32:34.288Z,6.50
2023-01-19T10:35:10.700Z,7.07
2023-01-19T10:37:39.309Z,9.40
2023-01-19T10:40:09.237Z,8.30
2023-01-19T10:42:38.409Z,9.10
2023-01-19T10:45:19.402Z,8.52
2023-01-19T10:47:48.469Z,9.38
2023-01-19T10:50:30.814Z,7.63
2023-01-19T10:53:00.869Z,6.80
2023-01-19T10:55:29.789Z,5.82
2023-01-19T10:57:57.458Z,6.47
2023-01-19T11:00:30.473Z,7.50
2023-01-19T11:02:57.436Z,6.75
2023-01-19T11:05:27.599Z,5.70
2023-01-19T11:07:54.666Z,6.90
2023-01-19T11:10:22.120Z,7.13
2023-01-19T11:13:13.057Z,8.02
2023-01-19T11:15:44.199Z,6.93
2023-01-19T11:18:30.314Z,5.55
2023-01-19T11:21:02.340Z,5.30
2023-01-19T11:23:45.353Z,5.65
2023-01-19T11:26:24.779Z,6.78
2023-01-19T11:28:54.725Z,4.53
2023-01-19T11:31:27.581Z,6.65
2023-01-19T11:34:01.127Z,7.45
2023-01-19T11:36:30.917Z,5.90
2023-01-19T11:39:00.582Z,6.75
2023-01-19T11:41:37.391Z,5.60
2023-01-19T11:44:26.930Z,6.38
2023-01-19T11:47:06.082Z,6.68
2023-01-19T11:49:47.127Z,6.40
2023-01-19T11:52:25.141Z,7.90
2023-01-19T11:55:01.677Z,7.20
2023-01-19T11:57:29.654Z,6.47
2023-01-19T11:59:58.767Z,8.40
2023-01-19T12:02:30.790Z,5.40
2023-01-19T12:05:06.720Z,6.03
2023-01-19T12:07:37.274Z,7.53
2023-01-19T12:10:29.763Z,7.13
2023-01-19T12:12:57.746Z,5.30
2023-01-19T12:15:42.304Z,6.60
2023-01-19T12:18:34.678Z,7.78
2023-01-19T12:21:04.106Z,7.93
2023-01-19T12:24:05.191Z,6.00
2023-01-19T12:26:42.319Z,6.85
2023-01-19T12:29:15.865Z,6.97
2023-01-19T12:31:43.441Z,7.72
2023-01-19T12:34:25.777Z,6.25
2023-01-19T12:36:57.602Z,4.38
2023-01-19T12:39:26.734Z,4.60
2023-01-19T12:42:08.060Z,5.50
2023-01-19T12:44:36.099Z,3.88
2023-01-19T12:47:14.757Z,3.95
2023-01-19T12:49:52.402Z,4.55
2023-01-19T12:52:41.391Z,5.50
2023-01-19T12:55:15.171Z,4.45
2023-01-19T12:58:15.505Z,3.75
2023-01-19T13:00:45.432Z,4.07
2023-01-19T13:03:18.245Z,4.53
2023-01-19T13:05:52.724Z,3.75
2023-01-19T13:08:29.996Z,4.38
2023-01-19T13:11:03.631Z,4.35
2023-01-19T13:13:37.792Z,3.97
2023-01-19T13:16:21.397Z,5.45
2023-01-19T13:19:06.916Z,6.05
2023-01-19T13:21:44.272Z,5.10
2023-01-19T13:24:15.032Z,4.65
2023-01-19T13:26:55.304Z,5.22
2023-01-19T13:29:33.151Z,4.03
2023-01-19T13:32:03.797Z,5.28
2023-01-19T13:34:46.988Z,6.18
2023-01-19T13:37:29.357Z,7.82
2023-01-19T13:40:04.874Z,6.25
2023-01-19T13:42:37.953Z,4.88
2023-01-19T13:45:22.515Z,6.13
2023-01-19T13:47:51.730Z,5.70
2023-01-19T13:50:24.580Z,6.75
2023-01-19T13:53:00.411Z,4.75
2023-01-19T13:55:31.841Z,5.65
2023-01-19T13:57:59.177Z,6.25
2023-01-19T14:00:32.152Z,6.95
2023-01-19T14:03:09.962Z,8.60
2023-01-19T14:05:42.660Z,6.30
2023-01-19T14:08:12.432Z,7.57
2023-01-19T14:10:42.119Z,7.00
2023-01-19T14:13:17.551Z,9.52
2023-01-19T14:15:49.237Z,8.25
2023-01-19T14:18:16.793Z,9.98
2023-01-19T14:20:54.340Z,8.68
2023-01-19T14:23:47.217Z,8.70
2023-01-19T14:26:38.841Z,9.73
2023-01-19T14:29:29.076Z,8.68
2023-01-19T14:32:28.221Z,7.47
2023-01-19T14:35:05.017Z,6.72
2023-01-19T14:37:38.431Z,6.65
2023-01-19T14:40:10.824Z,7.85
2023-01-19T14:42:45.797Z,10.57
2023-01-19T14:45:27.891Z,7.47
2023-01-19T14:48:15.830Z,8.23
2023-01-19T14:50:57.605Z,8.07
2023-01-19T14:53:32.648Z,8.30
2023-01-19T14:56:04.604Z,8.70
2023-01-19T14:58:35.077Z,8.82
2023-01-19T15:01:02.988Z,9.48
2023-01-19T15:03:44.750Z,9.55
2023-01-19T15:06:21.839Z,8.43
2023-01-19T15:08:53.297Z,9.55
2023-01-19T15:11:25.340Z,9.85
2023-01-19T15:13:52.595Z,9.23
2023-01-19T15:16:20.184Z,9.40
2023-01-19T15:18:47.062Z,10.50
2023-01-19T15:21:16.134Z,9.65
2023-01-19T15:23:43.060Z,10.93
2023-01-19T15:26:17.729Z,9.80
2023-01-19T15:28:46.138Z,10.48
2023-01-19T15:31:18.996Z,9.85
2023-01-19T15:33:46.220Z,10.80
2023-01-19T15:36:24.319Z,10.70
2023-01-19T15:38:58.336Z,10.02
2023-01-19T15:41:27.520Z,10.45
2023-01-19T15:43:54.361Z,10.68
2023-01-19T15:46:22.598Z,10.98
2023-01-19T15:48:50.688Z,10.27
2023-01-19T15:51:25.203Z,9.50
2023-01-19T15:53:55.449Z,10.80
2023-01-19T15:56:24.769Z,9.05
2023-01-19T15:58:53.019Z,8.30
2023-01-19T16:01:23.292Z,8.65
2023-01-19T16:03:52.602Z,9.80
2023-01-19T16:06:19.459Z,8.90
2023-01-19T16:08:46.479Z,9.27
2023-01-19T16:11:15.179Z,8.98
2023-01-19T16:13:46.344Z,7.35
2023-01-19T16:16:22.371Z,5.13
2023-01-19T16:18:49.881Z,5.13
2023-01-19T16:21:17.303Z,4.93
2023-01-19T16:23:44.278Z,3.85
2023-01-19T16:26:28.228Z,4.53
2023-01-19T16:29:08.832Z,9.40
2023-01-19T16:31:40.103Z,13.52
2023-01-19T16:34:07.828Z,14.45
2023-01-19T16:36:37.056Z,11.43
2023-01-19T16:39:11.106Z,10.05
2023-01-19T16:41:38.715Z,6.85
2023-01-19T16:44:06.529Z,6.80
2023-01-19T16:46:38.911Z,2.83
2023-01-19T16:49:17.839Z,2.20
2023-01-19T16:51:47.906Z,3.83
2023-01-19T16:54:17.788Z,6.72
2023-01-19T16:56:44.706Z,10.15
2023-01-19T16:59:14.379Z,8.23
2023-01-19T17:01:42.077Z,7.10
2023-01-19T17:04:09.179Z,4.72
2023-01-19T17:06:36.312Z,2.60
2023-01-19T17:09:03.688Z,6.43
2023-01-19T17:11:33.022Z,8.05
2023-01-19T17:14:08.283Z,13.55
2023-01-19T17:16:36.054Z,8.52
2023-01-19T17:19:04.960Z,8.13
2023-01-19T17:21:34.064Z,7.97
2023-01-19T17:24:01.183Z,6.82
2023-01-19T17:26:30.975Z,9.50
2023-01-19T17:29:02.332Z,10.38
2023-01-19T17:31:33.286Z,7.35
2023-01-19T17:34:01.101Z,7.93
2023-01-19T17:36:30.815Z,13.05
2023-01-19T17:39:00.126Z,13.98
2023-01-19T17:41:33.411Z,9.63
2023-01-19T17:44:03.976Z,5.55
2023-01-19T17:46:31.692Z,4.05
2023-01-19T17:49:03.696Z,1.83
2023-01-19T17:51:32.316Z,2.58
2023-01-19T17:53:59.773Z,3.80
2023-01-19T17:56:30.467Z,4.32
2023-01-19T17:58:58.495Z,4.80
2023-01-19T18:01:31.016Z,4.95
2023-01-19T18:04:07.876Z,4.65
2023-01-19T18:06:35.908Z,5.47
2023-01-19T18:09:04.965Z,7.43
2023-01-19T18:11:32.092Z,6.07
2023-01-19T18:14:02.595Z,7.82
2023-01-19T18:16:31.016Z,11.68
2023-01-19T18:18:57.865Z,6.75
2023-01-19T18:21:29.088Z,5.13
2023-01-19T18:24:04.556Z,4.47
2023-01-19T18:26:33.423Z,5.75
2023-01-19T18:29:00.622Z,6.38
2023-01-19T18:31:27.999Z,4.85
2023-01-19T18:33:55.302Z,11.77
2023-01-19T18:36:22.865Z,27.38
2023-01-19T18:38:50.126Z,16.95
2023-01-19T18:41:19.388Z,12.35
2023-01-19T18:43:48.095Z,7.10
2023-01-19T18:46:15.907Z,5.13
2023-01-19T18:48:42.921Z,5.18
2023-01-19T18:51:14.222Z,4.20
2023-01-19T18:53:41.869Z,4.60
2023-01-19T18:56:15.400Z,5.20
2023-01-19T18:58:42.711Z,3.65
2023-01-19T19:01:36.574Z,4.10
2023-01-19T19:04:03.617Z,2.97
2023-01-19T19:06:30.605Z,5.10
2023-01-19T19:08:59.439Z,4.50
2023-01-19T19:11:28.124Z,3.92
2023-01-19T19:14:01.031Z,2.92
2023-01-19T19:16:29.673Z,3.60
2023-01-19T19:18:56.669Z,4.50
2023-01-19T19:21:25.410Z,6.70
2023-01-19T19:23:54.462Z,5.28
2023-01-19T19:26:25.492Z,5.32
2023-01-19T19:28:54.820Z,5.15
2023-01-19T19:31:23.412Z,6.07
2023-01-19T19:33:51.376Z,7.78
2023-01-19T19:36:20.652Z,8.38
2023-01-19T19:38:49.507Z,7.78
2023-01-19T19:41:19.984Z,10.38
2023-01-19T19:43:47.721Z,12.88
2023-01-19T19:46:16.709Z,13.98
2023-01-19T19:48:43.883Z,13.07
2023-01-19T19:51:19.020Z,12.45
2023-01-19T19:53:49.064Z,13.82
2023-01-19T19:56:21.704Z,13.68
2023-01-19T19:58:50.153Z,12.52
2023-01-19T20:01:25.315Z,13.02
2023-01-19T20:06:23.813Z,13.05
2023-01-19T20:08:56.108Z,13.73
2023-01-19T20:11:28.146Z,16.52
2023-01-19T20:13:55.428Z,15.02
2023-01-19T20:16:23.604Z,15.68
2023-01-19T20:18:54.560Z,18.85
2023-01-19T20:21:25.500Z,17.33
2023-01-19T20:23:53.570Z,16.77
2023-01-19T20:26:28.075Z,19.15
2023-01-19T20:29:00.058Z,20.70
2023-01-19T20:31:30.614Z,19.70
2023-01-19T20:34:00.186Z,19.05
2023-01-19T20:36:27.257Z,19.42
2023-01-19T20:38:55.375Z,20.20
2023-01-19T20:41:23.499Z,20.90
2023-01-19T20:43:50.830Z,19.67
2023-01-19T20:46:18.452Z,20.40
2023-01-19T20:48:50.832Z,20.88
2023-01-19T20:51:18.938Z,20.17
2023-01-19T20:53:46.370Z,21.38
2023-01-19T20:56:15.398Z,23.48
2023-01-19T20:58:42.763Z,20.80
2023-01-19T21:01:14.576Z,20.70
2023-01-19T21:03:42.074Z,21.67
2023-01-19T21:06:09.524Z,22.42
2023-01-19T21:08:37.143Z,23.80
2023-01-19T21:11:06.816Z,20.63
2023-01-19T21:13:36.625Z,20.95
2023-01-19T21:16:06.658Z,19.27
2023-01-19T21:18:33.777Z,22.50
2023-01-19T21:21:01.104Z,22.50
2023-01-19T21:23:28.750Z,21.83
2023-01-19T21:25:57.925Z,22.90
2023-01-19T21:28:26.312Z,25.05
2023-01-19T21:30:54.213Z,25.38
2023-01-19T21:33:23.638Z,27.35
2023-01-19T21:35:56.302Z,24.40
2023-01-19T21:38:24.943Z,20.70
2023-01-19T21:40:51.984Z,23.98
2023-01-19T21:43:20.179Z,25.92
2023-01-19T21:45:48.548Z,25.02
2023-01-19T21:48:16.814Z,26.00
2023-01-19T21:50:43.914Z,24.38
2023-01-19T21:53:11.503Z,18.80
2023-01-19T21:55:43.125Z,20.33
2023-01-19T21:58:10.004Z,16.70
2023-01-19T22:00:36.807Z,12.55
2023-01-19T22:03:04.724Z,9.40
2023-01-19T22:05:36.934Z,8.10
2023-01-19T22:08:05.199Z,7.10
2023-01-19T22:10:34.792Z,6.47
2023-01-19T22:13:01.751Z,7.15
2023-01-19T22:15:31.446Z,7.18
2023-01-19T22:18:01.175Z,8.52
2023-01-19T22:20:28.442Z,7.18
2023-01-19T22:22:58.370Z,5.95
2023-01-19T22:25:27.881Z,6.78
2023-01-19T22:27:55.770Z,16.52
2023-01-19T22:30:22.754Z,22.58
2023-01-19T22:32:50.024Z,21.67
2023-01-19T22:35:16.997Z,21.83
2023-01-19T22:37:43.875Z,24.45
2023-01-19T22:40:11.493Z,25.70
2023-01-19T22:42:38.375Z,28.95
2023-01-19T22:45:05.779Z,30.00
2023-01-19T22:47:32.617Z,26.75
2023-01-19T22:49:59.485Z,25.60
2023-01-19T22:52:26.426Z,33.33
2023-01-19T22:54:56.401Z,27.80
2023-01-19T22:57:23.453Z,21.55
2023-01-19T22:59:50.315Z,26.15
2023-01-19T23:02:20.597Z,18.52
2023-01-19T23:04:47.846Z,14.27
2023-01-19T23:07:14.899Z,11.85
2023-01-19T23:09:42.834Z,10.30
2023-01-19T23:12:09.687Z,8.77
2023-01-19T23:14:36.787Z,8.82
2023-01-19T23:17:06.564Z,9.00
2023-01-19T23:19:33.858Z,6.32
2023-01-19T23:22:00.628Z,5.18
2023-01-19T23:24:28.069Z,4.90
2023-01-19T23:26:54.932Z,3.67
2023-01-19T23:29:22.304Z,4.00
2023-01-19T23:31:50.413Z,5.32
2023-01-19T23:34:17.990Z,5.43
2023-01-19T23:36:44.901Z,6.25
2023-01-19T23:39:16.195Z,6.78
2023-01-19T23:41:46.454Z,6.35
2023-01-19T23:44:13.724Z,6.57
2023-01-19T23:46:40.674Z,4.55
2023-01-19T23:49:07.587Z,4.35
2023-01-19T23:51:34.637Z,6.55
2023-01-19T23:54:01.580Z,5.45
2023-01-19T23:56:31.865Z,5.47
2023-01-19T23:59:07.071Z,6.03
